sensor_id;sensor_type;location;lat;lon;timestamp;temperature;humidity
27384;DHT22;14851;51.166;4.760;2023-03-13T00:04:01;10.80;99.90
27384;DHT22;14851;51.166;4.760;2023-03-13T00:06:33;10.80;99.90
27384;DHT22;14851;51.166;4.760;2023-03-13T00:09:01;10.80;99.90
27384;DHT22;14851;51.166;4.760;2023-03-13T00:11:27;10.80;99.90
27384;DHT22;14851;51.166;4.760;2023-03-13T00:13:57;10.80;99.90
27384;DHT22;14851;51.166;4.760;2023-03-13T00:16:23;10.80;99.90
27384;DHT22;14851;51.166;4.760;2023-03-13T00:18:53;10.80;99.90
27384;DHT22;14851;51.166;4.760;2023-03-13T00:21:22;10.80;99.90
27384;DHT22;14851;51.166;4.760;2023-03-13T00:23:49;10.80;99.90
27384;DHT22;14851;51.166;4.760;2023-03-13T00:26:18;10.80;99.90
27384;DHT22;14851;51.166;4.760;2023-03-13T00:28:44;10.70;99.90
27384;DHT22;14851;51.166;4.760;2023-03-13T00:31:17;10.80;99.90
27384;DHT22;14851;51.166;4.760;2023-03-13T00:33:45;10.70;99.90
27384;DHT22;14851;51.166;4.760;2023-03-13T00:36:17;10.70;99.90
27384;DHT22;14851;51.166;4.760;2023-03-13T00:38:45;10.70;99.90
27384;DHT22;14851;51.166;4.760;2023-03-13T00:41:16;10.80;99.90
27384;DHT22;14851;51.166;4.760;2023-03-13T00:43:43;10.80;99.90
27384;DHT22;14851;51.166;4.760;2023-03-13T00:46:11;10.80;99.90
27384;DHT22;14851;51.166;4.760;2023-03-13T00:48:38;10.80;99.90
27384;DHT22;14851;51.166;4.760;2023-03-13T00:51:04;10.90;99.90
27384;DHT22;14851;51.166;4.760;2023-03-13T00:53:30;10.80;99.90
27384;DHT22;14851;51.166;4.760;2023-03-13T00:56:14;10.80;99.90
27384;DHT22;14851;51.166;4.760;2023-03-13T00:58:41;10.90;99.90
27384;DHT22;14851;51.166;4.760;2023-03-13T01:01:17;11.00;99.90
27384;DHT22;14851;51.166;4.760;2023-03-13T01:03:46;11.00;99.90
27384;DHT22;14851;51.166;4.760;2023-03-13T01:06:16;11.00;99.90
27384;DHT22;14851;51.166;4.760;2023-03-13T01:08:43;10.90;99.90
27384;DHT22;14851;51.166;4.760;2023-03-13T01:11:11;11.00;99.90
27384;DHT22;14851;51.166;4.760;2023-03-13T01:13:38;11.00;99.90
27384;DHT22;14851;51.166;4.760;2023-03-13T01:18:36;11.00;99.90
27384;DHT22;14851;51.166;4.760;2023-03-13T01:21:03;11.00;99.90
27384;DHT22;14851;51.166;4.760;2023-03-13T01:23:29;11.00;99.90
27384;DHT22;14851;51.166;4.760;2023-03-13T01:25:56;11.00;99.90
27384;DHT22;14851;51.166;4.760;2023-03-13T01:28:22;11.00;99.90
27384;DHT22;14851;51.166;4.760;2023-03-13T01:30:49;11.00;99.90
27384;DHT22;14851;51.166;4.760;2023-03-13T01:33:18;11.00;99.90
27384;DHT22;14851;51.166;4.760;2023-03-13T01:35:45;11.00;99.90
27384;DHT22;14851;51.166;4.760;2023-03-13T01:38:12;11.00;99.90
27384;DHT22;14851;51.166;4.760;2023-03-13T01:40:44;11.00;99.90
27384;DHT22;14851;51.166;4.760;2023-03-13T01:43:19;11.10;99.90
27384;DHT22;14851;51.166;4.760;2023-03-13T01:51:32;11.10;99.90
27384;DHT22;14851;51.166;4.760;2023-03-13T01:54:28;11.10;99.90
27384;DHT22;14851;51.166;4.760;2023-03-13T01:57:32;11.20;99.90
27384;DHT22;14851;51.166;4.760;2023-03-13T02:00:23;11.10;99.90
27384;DHT22;14851;51.166;4.760;2023-03-13T02:02:54;11.20;99.90
27384;DHT22;14851;51.166;4.760;2023-03-13T02:05:26;11.20;99.90
27384;DHT22;14851;51.166;4.760;2023-03-13T02:07:58;11.20;99.90
27384;DHT22;14851;51.166;4.760;2023-03-13T02:10:26;11.30;99.90
27384;DHT22;14851;51.166;4.760;2023-03-13T02:12:56;11.30;99.90
27384;DHT22;14851;51.166;4.760;2023-03-13T02:15:23;11.20;99.90
27384;DHT22;14851;51.166;4.760;2023-03-13T02:17:51;11.20;99.90
27384;DHT22;14851;51.166;4.760;2023-03-13T02:20:20;11.30;99.90
27384;DHT22;14851;51.166;4.760;2023-03-13T02:23:01;11.20;99.90
27384;DHT22;14851;51.166;4.760;2023-03-13T02:28:06;11.30;99.90
27384;DHT22;14851;51.166;4.760;2023-03-13T02:30:35;11.40;99.90
27384;DHT22;14851;51.166;4.760;2023-03-13T02:33:04;11.30;99.90
27384;DHT22;14851;51.166;4.760;2023-03-13T02:35:31;11.40;99.90
27384;DHT22;14851;51.166;4.760;2023-03-13T02:38:03;11.40;99.90
27384;DHT22;14851;51.166;4.760;2023-03-13T02:40:34;11.50;99.90
27384;DHT22;14851;51.166;4.760;2023-03-13T02:43:04;11.50;99.90
27384;DHT22;14851;51.166;4.760;2023-03-13T02:45:31;11.50;99.90
27384;DHT22;14851;51.166;4.760;2023-03-13T02:47:58;11.50;99.90
27384;DHT22;14851;51.166;4.760;2023-03-13T02:50:27;11.60;99.90
27384;DHT22;14851;51.166;4.760;2023-03-13T02:53:04;11.60;99.90
27384;DHT22;14851;51.166;4.760;2023-03-13T02:55:38;11.60;99.90
27384;DHT22;14851;51.166;4.760;2023-03-13T02:58:10;11.70;99.90
27384;DHT22;14851;51.166;4.760;2023-03-13T03:00:37;11.70;99.90
27384;DHT22;14851;51.166;4.760;2023-03-13T03:03:02;11.70;99.90
27384;DHT22;14851;51.166;4.760;2023-03-13T03:05:28;11.70;99.90
27384;DHT22;14851;51.166;4.760;2023-03-13T03:07:58;11.70;99.90
27384;DHT22;14851;51.166;4.760;2023-03-13T03:10:25;11.80;99.90
27384;DHT22;14851;51.166;4.760;2023-03-13T03:12:51;11.80;99.90
27384;DHT22;14851;51.166;4.760;2023-03-13T03:15:17;11.80;99.90
27384;DHT22;14851;51.166;4.760;2023-03-13T03:17:47;11.90;99.90
27384;DHT22;14851;51.166;4.760;2023-03-13T03:20:16;11.90;99.90
27384;DHT22;14851;51.166;4.760;2023-03-13T03:22:42;11.90;99.90
27384;DHT22;14851;51.166;4.760;2023-03-13T03:25:11;11.90;99.90
27384;DHT22;14851;51.166;4.760;2023-03-13T03:27:37;11.90;99.90
27384;DHT22;14851;51.166;4.760;2023-03-13T03:30:06;11.90;99.90
27384;DHT22;14851;51.166;4.760;2023-03-13T03:32:34;11.90;99.90
27384;DHT22;14851;51.166;4.760;2023-03-13T03:35:00;12.00;99.90
27384;DHT22;14851;51.166;4.760;2023-03-13T03:37:26;12.00;99.90
27384;DHT22;14851;51.166;4.760;2023-03-13T03:39:54;12.00;99.90
27384;DHT22;14851;51.166;4.760;2023-03-13T03:42:20;12.00;99.90
27384;DHT22;14851;51.166;4.760;2023-03-13T03:44:48;12.00;99.90
27384;DHT22;14851;51.166;4.760;2023-03-13T03:47:17;12.10;99.90
27384;DHT22;14851;51.166;4.760;2023-03-13T03:49:45;12.10;99.90
27384;DHT22;14851;51.166;4.760;2023-03-13T03:52:12;12.20;99.90
27384;DHT22;14851;51.166;4.760;2023-03-13T03:54:42;12.20;99.90
27384;DHT22;14851;51.166;4.760;2023-03-13T03:57:08;12.20;99.90
27384;DHT22;14851;51.166;4.760;2023-03-13T03:59:35;12.20;99.90
27384;DHT22;14851;51.166;4.760;2023-03-13T04:02:07;12.30;99.90
27384;DHT22;14851;51.166;4.760;2023-03-13T04:04:35;12.30;99.90
27384;DHT22;14851;51.166;4.760;2023-03-13T04:07:24;12.30;99.90
27384;DHT22;14851;51.166;4.760;2023-03-13T04:09:54;12.30;99.90
27384;DHT22;14851;51.166;4.760;2023-03-13T04:12:26;12.30;99.90
27384;DHT22;14851;51.166;4.760;2023-03-13T04:14:54;12.30;99.90
27384;DHT22;14851;51.166;4.760;2023-03-13T04:17:20;12.20;99.90
27384;DHT22;14851;51.166;4.760;2023-03-13T04:19:47;12.30;99.90
27384;DHT22;14851;51.166;4.760;2023-03-13T04:22:13;12.30;99.90
27384;DHT22;14851;51.166;4.760;2023-03-13T04:24:45;12.30;99.90
27384;DHT22;14851;51.166;4.760;2023-03-13T04:27:10;12.30;99.90
27384;DHT22;14851;51.166;4.760;2023-03-13T04:29:36;12.40;99.90
27384;DHT22;14851;51.166;4.760;2023-03-13T04:32:19;12.40;99.90
27384;DHT22;14851;51.166;4.760;2023-03-13T04:35:01;12.40;99.90
27384;DHT22;14851;51.166;4.760;2023-03-13T04:37:53;12.40;99.90
27384;DHT22;14851;51.166;4.760;2023-03-13T04:40:38;12.40;99.90
27384;DHT22;14851;51.166;4.760;2023-03-13T04:43:37;12.50;99.90
27384;DHT22;14851;51.166;4.760;2023-03-13T04:46:32;12.40;99.90
27384;DHT22;14851;51.166;4.760;2023-03-13T04:49:22;12.50;99.90
27384;DHT22;14851;51.166;4.760;2023-03-13T04:51:51;12.60;99.90
27384;DHT22;14851;51.166;4.760;2023-03-13T04:54:35;12.50;99.90
27384;DHT22;14851;51.166;4.760;2023-03-13T04:57:25;12.50;99.90
27384;DHT22;14851;51.166;4.760;2023-03-13T05:00:21;12.60;99.90
27384;DHT22;14851;51.166;4.760;2023-03-13T05:03:07;12.50;99.90
27384;DHT22;14851;51.166;4.760;2023-03-13T05:05:46;12.60;99.90
27384;DHT22;14851;51.166;4.760;2023-03-13T05:08:35;12.60;99.90
27384;DHT22;14851;51.166;4.760;2023-03-13T05:11:30;12.70;99.90
27384;DHT22;14851;51.166;4.760;2023-03-13T05:14:07;12.70;99.90
27384;DHT22;14851;51.166;4.760;2023-03-13T05:16:55;12.70;99.90
27384;DHT22;14851;51.166;4.760;2023-03-13T05:19:40;12.70;99.90
27384;DHT22;14851;51.166;4.760;2023-03-13T05:22:35;12.70;99.90
27384;DHT22;14851;51.166;4.760;2023-03-13T05:25:20;12.70;99.90
27384;DHT22;14851;51.166;4.760;2023-03-13T05:27:49;12.80;99.90
27384;DHT22;14851;51.166;4.760;2023-03-13T05:30:24;12.70;99.90
27384;DHT22;14851;51.166;4.760;2023-03-13T05:33:16;12.70;99.90
27384;DHT22;14851;51.166;4.760;2023-03-13T05:35:51;12.80;99.90
27384;DHT22;14851;51.166;4.760;2023-03-13T05:38:46;12.70;99.90
27384;DHT22;14851;51.166;4.760;2023-03-13T05:41:41;12.70;99.90
27384;DHT22;14851;51.166;4.760;2023-03-13T05:44:36;12.70;99.90
27384;DHT22;14851;51.166;4.760;2023-03-13T05:47:28;12.80;99.90
27384;DHT22;14851;51.166;4.760;2023-03-13T05:50:04;12.80;99.90
27384;DHT22;14851;51.166;4.760;2023-03-13T05:53:09;12.80;99.90
27384;DHT22;14851;51.166;4.760;2023-03-13T05:55:44;12.70;99.90
27384;DHT22;14851;51.166;4.760;2023-03-13T05:58:33;12.80;99.90
27384;DHT22;14851;51.166;4.760;2023-03-13T06:01:22;12.80;99.90
27384;DHT22;14851;51.166;4.760;2023-03-13T06:03:54;12.80;99.90
27384;DHT22;14851;51.166;4.760;2023-03-13T06:06:22;12.80;99.90
27384;DHT22;14851;51.166;4.760;2023-03-13T06:08:52;12.90;99.90
27384;DHT22;14851;51.166;4.760;2023-03-13T06:11:22;12.90;99.90
27384;DHT22;14851;51.166;4.760;2023-03-13T06:13:51;12.90;99.90
27384;DHT22;14851;51.166;4.760;2023-03-13T06:16:38;12.90;99.90
27384;DHT22;14851;51.166;4.760;2023-03-13T06:19:15;12.90;99.90
27384;DHT22;14851;51.166;4.760;2023-03-13T06:21:42;12.90;99.90
27384;DHT22;14851;51.166;4.760;2023-03-13T06:24:08;12.90;99.90
27384;DHT22;14851;51.166;4.760;2023-03-13T06:26:36;12.90;99.90
27384;DHT22;14851;51.166;4.760;2023-03-13T06:29:02;12.90;99.90
27384;DHT22;14851;51.166;4.760;2023-03-13T06:31:28;12.90;99.90
27384;DHT22;14851;51.166;4.760;2023-03-13T06:33:54;12.90;99.90
27384;DHT22;14851;51.166;4.760;2023-03-13T06:36:24;13.00;99.90
27384;DHT22;14851;51.166;4.760;2023-03-13T06:38:50;12.90;99.90
27384;DHT22;14851;51.166;4.760;2023-03-13T06:41:16;12.90;99.90
27384;DHT22;14851;51.166;4.760;2023-03-13T06:43:42;13.00;99.90
27384;DHT22;14851;51.166;4.760;2023-03-13T06:46:17;13.00;99.90
27384;DHT22;14851;51.166;4.760;2023-03-13T06:48:43;13.00;99.90
27384;DHT22;14851;51.166;4.760;2023-03-13T06:51:15;13.10;99.90
27384;DHT22;14851;51.166;4.760;2023-03-13T06:53:41;13.10;99.90
27384;DHT22;14851;51.166;4.760;2023-03-13T06:56:09;13.00;99.90
27384;DHT22;14851;51.166;4.760;2023-03-13T06:58:35;13.10;99.90
27384;DHT22;14851;51.166;4.760;2023-03-13T07:01:08;13.10;99.90
27384;DHT22;14851;51.166;4.760;2023-03-13T07:03:35;13.10;99.90
27384;DHT22;14851;51.166;4.760;2023-03-13T07:06:02;13.10;99.90
27384;DHT22;14851;51.166;4.760;2023-03-13T07:08:29;13.10;99.90
27384;DHT22;14851;51.166;4.760;2023-03-13T07:10:58;13.10;99.90
27384;DHT22;14851;51.166;4.760;2023-03-13T07:13:25;13.10;99.90
27384;DHT22;14851;51.166;4.760;2023-03-13T07:15:59;13.20;99.90
27384;DHT22;14851;51.166;4.760;2023-03-13T07:18:30;13.20;99.90
27384;DHT22;14851;51.166;4.760;2023-03-13T07:20:58;13.10;99.90
27384;DHT22;14851;51.166;4.760;2023-03-13T07:23:26;13.10;99.90
27384;DHT22;14851;51.166;4.760;2023-03-13T07:25:59;13.20;99.90
27384;DHT22;14851;51.166;4.760;2023-03-13T07:28:26;13.20;99.90
27384;DHT22;14851;51.166;4.760;2023-03-13T07:31:06;13.20;99.90
27384;DHT22;14851;51.166;4.760;2023-03-13T07:33:33;13.20;99.90
27384;DHT22;14851;51.166;4.760;2023-03-13T07:36:02;13.30;99.90
27384;DHT22;14851;51.166;4.760;2023-03-13T07:38:30;13.30;99.90
27384;DHT22;14851;51.166;4.760;2023-03-13T07:40:56;13.30;99.90
27384;DHT22;14851;51.166;4.760;2023-03-13T07:43:24;13.30;99.90
27384;DHT22;14851;51.166;4.760;2023-03-13T07:48:20;13.30;99.90
27384;DHT22;14851;51.166;4.760;2023-03-13T07:50:47;13.40;99.90
27384;DHT22;14851;51.166;4.760;2023-03-13T07:53:13;13.40;99.90
27384;DHT22;14851;51.166;4.760;2023-03-13T07:56:02;13.40;99.90
27384;DHT22;14851;51.166;4.760;2023-03-13T07:58:31;13.40;99.90
27384;DHT22;14851;51.166;4.760;2023-03-13T08:00:58;13.40;99.90
27384;DHT22;14851;51.166;4.760;2023-03-13T08:03:26;13.40;99.90
27384;DHT22;14851;51.166;4.760;2023-03-13T08:06:05;13.40;99.90
27384;DHT22;14851;51.166;4.760;2023-03-13T08:08:31;13.50;99.90
27384;DHT22;14851;51.166;4.760;2023-03-13T08:11:03;13.50;99.90
27384;DHT22;14851;51.166;4.760;2023-03-13T08:13:31;13.40;99.90
27384;DHT22;14851;51.166;4.760;2023-03-13T08:16:09;13.40;99.90
27384;DHT22;14851;51.166;4.760;2023-03-13T08:18:39;13.40;99.90
27384;DHT22;14851;51.166;4.760;2023-03-13T08:21:07;13.40;99.90
27384;DHT22;14851;51.166;4.760;2023-03-13T08:23:33;13.40;99.90
27384;DHT22;14851;51.166;4.760;2023-03-13T08:26:08;13.40;99.90
27384;DHT22;14851;51.166;4.760;2023-03-13T08:28:38;13.40;99.90
27384;DHT22;14851;51.166;4.760;2023-03-13T08:31:09;13.50;99.90
27384;DHT22;14851;51.166;4.760;2023-03-13T08:33:35;13.50;99.90
27384;DHT22;14851;51.166;4.760;2023-03-13T08:38:39;13.50;99.90
27384;DHT22;14851;51.166;4.760;2023-03-13T08:41:13;13.50;99.90
27384;DHT22;14851;51.166;4.760;2023-03-13T08:43:39;13.50;99.90
27384;DHT22;14851;51.166;4.760;2023-03-13T08:46:05;13.60;99.90
27384;DHT22;14851;51.166;4.760;2023-03-13T08:48:31;13.60;99.90
27384;DHT22;14851;51.166;4.760;2023-03-13T08:51:05;13.60;99.90
27384;DHT22;14851;51.166;4.760;2023-03-13T08:53:32;13.60;99.90
27384;DHT22;14851;51.166;4.760;2023-03-13T08:55:58;13.70;99.90
27384;DHT22;14851;51.166;4.760;2023-03-13T08:58:26;13.70;99.90
27384;DHT22;14851;51.166;4.760;2023-03-13T09:00:53;13.70;99.90
27384;DHT22;14851;51.166;4.760;2023-03-13T09:03:20;13.80;99.90
27384;DHT22;14851;51.166;4.760;2023-03-13T09:05:46;13.80;99.90
27384;DHT22;14851;51.166;4.760;2023-03-13T09:08:13;13.80;99.90
27384;DHT22;14851;51.166;4.760;2023-03-13T09:10:40;13.90;99.90
27384;DHT22;14851;51.166;4.760;2023-03-13T09:13:08;13.90;99.90
27384;DHT22;14851;51.166;4.760;2023-03-13T09:15:36;13.90;99.90
27384;DHT22;14851;51.166;4.760;2023-03-13T09:18:02;14.00;99.90
27384;DHT22;14851;51.166;4.760;2023-03-13T09:20:29;14.10;99.90
27384;DHT22;14851;51.166;4.760;2023-03-13T09:22:55;14.10;99.90
27384;DHT22;14851;51.166;4.760;2023-03-13T09:25:21;14.20;99.90
27384;DHT22;14851;51.166;4.760;2023-03-13T09:27:52;14.30;99.90
27384;DHT22;14851;51.166;4.760;2023-03-13T09:30:21;14.30;99.90
27384;DHT22;14851;51.166;4.760;2023-03-13T09:32:51;14.30;99.90
27384;DHT22;14851;51.166;4.760;2023-03-13T09:35:17;14.40;99.90
27384;DHT22;14851;51.166;4.760;2023-03-13T09:37:43;14.30;99.90
27384;DHT22;14851;51.166;4.760;2023-03-13T09:40:14;14.40;99.90
27384;DHT22;14851;51.166;4.760;2023-03-13T09:45:33;14.50;99.90
27384;DHT22;14851;51.166;4.760;2023-03-13T09:48:10;14.40;99.90
27384;DHT22;14851;51.166;4.760;2023-03-13T09:50:44;14.50;99.90
27384;DHT22;14851;51.166;4.760;2023-03-13T09:53:24;14.50;99.90
27384;DHT22;14851;51.166;4.760;2023-03-13T09:55:51;14.60;99.90
27384;DHT22;14851;51.166;4.760;2023-03-13T09:58:26;14.60;99.90
27384;DHT22;14851;51.166;4.760;2023-03-13T10:01:03;14.60;99.90
27384;DHT22;14851;51.166;4.760;2023-03-13T10:03:43;14.70;99.90
27384;DHT22;14851;51.166;4.760;2023-03-13T10:06:17;14.80;99.90
27384;DHT22;14851;51.166;4.760;2023-03-13T10:08:43;14.80;99.90
27384;DHT22;14851;51.166;4.760;2023-03-13T10:11:36;14.90;99.90
27384;DHT22;14851;51.166;4.760;2023-03-13T10:14:27;14.90;99.90
27384;DHT22;14851;51.166;4.760;2023-03-13T10:20:42;14.90;99.90
27384;DHT22;14851;51.166;4.760;2023-03-13T10:22:45;14.90;99.90
27384;DHT22;14851;51.166;4.760;2023-03-13T10:25:26;14.90;99.90
27384;DHT22;14851;51.166;4.760;2023-03-13T10:27:53;14.90;99.90
27384;DHT22;14851;51.166;4.760;2023-03-13T10:30:33;15.00;99.90
27384;DHT22;14851;51.166;4.760;2023-03-13T10:35:37;15.10;99.90
27384;DHT22;14851;51.166;4.760;2023-03-13T10:38:10;15.10;99.90
27384;DHT22;14851;51.166;4.760;2023-03-13T10:40:36;15.10;99.90
27384;DHT22;14851;51.166;4.760;2023-03-13T10:43:15;15.20;99.90
27384;DHT22;14851;51.166;4.760;2023-03-13T10:45:44;15.20;99.90
27384;DHT22;14851;51.166;4.760;2023-03-13T10:48:14;15.10;99.90
27384;DHT22;14851;51.166;4.760;2023-03-13T10:50:43;15.10;99.90
27384;DHT22;14851;51.166;4.760;2023-03-13T10:55:53;15.10;99.90
27384;DHT22;14851;51.166;4.760;2023-03-13T10:58:34;15.20;99.90
27384;DHT22;14851;51.166;4.760;2023-03-13T11:01:15;15.30;99.90
27384;DHT22;14851;51.166;4.760;2023-03-13T11:03:42;15.40;99.90
27384;DHT22;14851;51.166;4.760;2023-03-13T11:06:31;15.40;99.90
27384;DHT22;14851;51.166;4.760;2023-03-13T11:09:18;15.40;99.90
27384;DHT22;14851;51.166;4.760;2023-03-13T11:11:50;15.40;99.90
27384;DHT22;14851;51.166;4.760;2023-03-13T11:14:23;15.40;99.90
27384;DHT22;14851;51.166;4.760;2023-03-13T11:25:17;15.40;99.90
27384;DHT22;14851;51.166;4.760;2023-03-13T11:36:23;15.50;99.90
27384;DHT22;14851;51.166;4.760;2023-03-13T11:41:51;15.40;99.90
27384;DHT22;14851;51.166;4.760;2023-03-13T11:47:35;15.50;99.90
27384;DHT22;14851;51.166;4.760;2023-03-13T11:50:07;15.50;99.90
27384;DHT22;14851;51.166;4.760;2023-03-13T11:52:59;15.50;99.90
27384;DHT22;14851;51.166;4.760;2023-03-13T12:06:50;15.60;99.90
27384;DHT22;14851;51.166;4.760;2023-03-13T12:12:02;15.70;99.90
27384;DHT22;14851;51.166;4.760;2023-03-13T12:14:39;15.80;99.90
27384;DHT22;14851;51.166;4.760;2023-03-13T12:17:14;15.80;99.90
27384;DHT22;14851;51.166;4.760;2023-03-13T12:22:40;16.00;99.90
27384;DHT22;14851;51.166;4.760;2023-03-13T12:25:53;16.00;99.90
27384;DHT22;14851;51.166;4.760;2023-03-13T12:34:02;16.00;99.90
27384;DHT22;14851;51.166;4.760;2023-03-13T12:36:56;16.00;99.90
27384;DHT22;14851;51.166;4.760;2023-03-13T12:45:16;16.40;99.90
27384;DHT22;14851;51.166;4.760;2023-03-13T12:50:59;16.50;99.90
27384;DHT22;14851;51.166;4.760;2023-03-13T12:54:01;16.50;99.90
27384;DHT22;14851;51.166;4.760;2023-03-13T13:00:19;16.50;99.90
27384;DHT22;14851;51.166;4.760;2023-03-13T13:02:31;16.70;99.90
27384;DHT22;14851;51.166;4.760;2023-03-13T13:04:59;16.70;99.90
27384;DHT22;14851;51.166;4.760;2023-03-13T13:07:36;16.70;99.90
27384;DHT22;14851;51.166;4.760;2023-03-13T13:12:43;16.60;99.90
27384;DHT22;14851;51.166;4.760;2023-03-13T13:15:21;16.50;99.90
27384;DHT22;14851;51.166;4.760;2023-03-13T13:20:49;16.60;99.90
27384;DHT22;14851;51.166;4.760;2023-03-13T13:23:39;16.60;99.90
27384;DHT22;14851;51.166;4.760;2023-03-13T13:37:24;16.40;99.90
27384;DHT22;14851;51.166;4.760;2023-03-13T13:39:53;16.50;99.90
27384;DHT22;14851;51.166;4.760;2023-03-13T13:47:47;16.60;99.90
27384;DHT22;14851;51.166;4.760;2023-03-13T13:50:20;16.50;99.90
27384;DHT22;14851;51.166;4.760;2023-03-13T13:52:47;16.60;99.90
27384;DHT22;14851;51.166;4.760;2023-03-13T13:55:31;16.60;99.90
27384;DHT22;14851;51.166;4.760;2023-03-13T13:58:05;16.60;99.90
27384;DHT22;14851;51.166;4.760;2023-03-13T14:00:54;16.50;99.90
27384;DHT22;14851;51.166;4.760;2023-03-13T14:03:24;16.60;99.90
27384;DHT22;14851;51.166;4.760;2023-03-13T14:05:55;16.60;99.90
27384;DHT22;14851;51.166;4.760;2023-03-13T14:08:28;16.70;99.90
27384;DHT22;14851;51.166;4.760;2023-03-13T14:11:15;16.80;99.90
27384;DHT22;14851;51.166;4.760;2023-03-13T14:16:47;16.70;99.90
27384;DHT22;14851;51.166;4.760;2023-03-13T14:19:35;16.70;99.90
27384;DHT22;14851;51.166;4.760;2023-03-13T14:22:05;16.70;99.90
27384;DHT22;14851;51.166;4.760;2023-03-13T14:24:31;16.70;99.90
27384;DHT22;14851;51.166;4.760;2023-03-13T14:26:57;16.70;99.90
27384;DHT22;14851;51.166;4.760;2023-03-13T14:29:23;16.70;99.90
27384;DHT22;14851;51.166;4.760;2023-03-13T14:31:55;16.60;99.90
27384;DHT22;14851;51.166;4.760;2023-03-13T14:34:21;16.60;99.90
27384;DHT22;14851;51.166;4.760;2023-03-13T14:36:55;16.60;99.90
27384;DHT22;14851;51.166;4.760;2023-03-13T14:42:05;16.70;99.90
27384;DHT22;14851;51.166;4.760;2023-03-13T14:44:34;16.80;99.90
27384;DHT22;14851;51.166;4.760;2023-03-13T14:49:44;16.80;99.90
27384;DHT22;14851;51.166;4.760;2023-03-13T14:52:21;16.90;99.90
27384;DHT22;14851;51.166;4.760;2023-03-13T14:54:57;16.90;99.90
27384;DHT22;14851;51.166;4.760;2023-03-13T14:57:24;16.90;99.90
27384;DHT22;14851;51.166;4.760;2023-03-13T14:59:53;17.00;99.90
27384;DHT22;14851;51.166;4.760;2023-03-13T15:04:52;17.00;99.90
27384;DHT22;14851;51.166;4.760;2023-03-13T15:07:22;17.00;99.90
27384;DHT22;14851;51.166;4.760;2023-03-13T15:09:52;17.00;99.90
27384;DHT22;14851;51.166;4.760;2023-03-13T15:12:22;16.90;99.90
27384;DHT22;14851;51.166;4.760;2023-03-13T15:14:50;16.80;99.90
27384;DHT22;14851;51.166;4.760;2023-03-13T15:17:24;16.80;99.90
27384;DHT22;14851;51.166;4.760;2023-03-13T15:19:56;16.70;99.90
27384;DHT22;14851;51.166;4.760;2023-03-13T15:22:30;16.80;99.90
27384;DHT22;14851;51.166;4.760;2023-03-13T15:24:57;16.80;99.90
27384;DHT22;14851;51.166;4.760;2023-03-13T15:27:25;16.80;99.90
27384;DHT22;14851;51.166;4.760;2023-03-13T15:29:55;16.80;99.90
27384;DHT22;14851;51.166;4.760;2023-03-13T15:32:29;16.80;99.90
27384;DHT22;14851;51.166;4.760;2023-03-13T15:34:56;16.80;99.90
27384;DHT22;14851;51.166;4.760;2023-03-13T15:37:28;16.70;99.90
27384;DHT22;14851;51.166;4.760;2023-03-13T15:39:57;16.80;99.90
27384;DHT22;14851;51.166;4.760;2023-03-13T15:42:27;16.80;99.90
27384;DHT22;14851;51.166;4.760;2023-03-13T15:44:58;16.80;99.90
27384;DHT22;14851;51.166;4.760;2023-03-13T15:47:25;16.80;99.90
27384;DHT22;14851;51.166;4.760;2023-03-13T15:49:53;16.80;99.90
27384;DHT22;14851;51.166;4.760;2023-03-13T15:52:20;16.80;99.90
27384;DHT22;14851;51.166;4.760;2023-03-13T15:54:48;16.70;99.90
27384;DHT22;14851;51.166;4.760;2023-03-13T15:57:20;16.70;99.90
27384;DHT22;14851;51.166;4.760;2023-03-13T15:59:48;16.70;99.90
27384;DHT22;14851;51.166;4.760;2023-03-13T16:02:21;16.70;99.90
27384;DHT22;14851;51.166;4.760;2023-03-13T16:04:48;16.70;99.90
27384;DHT22;14851;51.166;4.760;2023-03-13T16:07:17;16.70;99.90
27384;DHT22;14851;51.166;4.760;2023-03-13T16:09:45;16.70;99.90
27384;DHT22;14851;51.166;4.760;2023-03-13T16:12:11;16.70;99.90
27384;DHT22;14851;51.166;4.760;2023-03-13T16:14:39;16.80;99.90
27384;DHT22;14851;51.166;4.760;2023-03-13T16:17:16;16.70;99.90
27384;DHT22;14851;51.166;4.760;2023-03-13T16:19:43;16.60;99.90
27384;DHT22;14851;51.166;4.760;2023-03-13T16:22:12;16.60;99.90
27384;DHT22;14851;51.166;4.760;2023-03-13T16:24:40;16.60;99.90
27384;DHT22;14851;51.166;4.760;2023-03-13T16:27:18;16.60;99.90
27384;DHT22;14851;51.166;4.760;2023-03-13T16:29:46;16.60;99.90
27384;DHT22;14851;51.166;4.760;2023-03-13T16:32:14;16.50;99.90
27384;DHT22;14851;51.166;4.760;2023-03-13T16:34:41;16.50;99.90
27384;DHT22;14851;51.166;4.760;2023-03-13T16:37:16;16.50;99.90
27384;DHT22;14851;51.166;4.760;2023-03-13T16:39:43;16.50;99.90
27384;DHT22;14851;51.166;4.760;2023-03-13T16:42:10;16.40;99.90
27384;DHT22;14851;51.166;4.760;2023-03-13T16:44:36;16.30;99.90
27384;DHT22;14851;51.166;4.760;2023-03-13T16:47:40;16.20;99.90
27384;DHT22;14851;51.166;4.760;2023-03-13T16:50:01;16.10;99.90
27384;DHT22;14851;51.166;4.760;2023-03-13T16:52:27;16.10;99.90
27384;DHT22;14851;51.166;4.760;2023-03-13T16:54:53;16.00;99.90
27384;DHT22;14851;51.166;4.760;2023-03-13T16:57:24;16.00;99.90
27384;DHT22;14851;51.166;4.760;2023-03-13T16:59:50;16.00;99.90
27384;DHT22;14851;51.166;4.760;2023-03-13T17:02:18;15.90;99.90
27384;DHT22;14851;51.166;4.760;2023-03-13T17:04:45;15.90;99.90
27384;DHT22;14851;51.166;4.760;2023-03-13T17:07:31;15.90;99.90
27384;DHT22;14851;51.166;4.760;2023-03-13T17:09:58;15.90;99.90
27384;DHT22;14851;51.166;4.760;2023-03-13T17:12:24;15.80;99.90
27384;DHT22;14851;51.166;4.760;2023-03-13T17:14:51;15.80;99.90
27384;DHT22;14851;51.166;4.760;2023-03-13T17:17:18;15.80;99.90
27384;DHT22;14851;51.166;4.760;2023-03-13T17:19:45;15.90;99.90
27384;DHT22;14851;51.166;4.760;2023-03-13T17:22:13;15.90;99.90
27384;DHT22;14851;51.166;4.760;2023-03-13T17:24:40;15.80;99.90
27384;DHT22;14851;51.166;4.760;2023-03-13T17:27:15;15.80;99.90
27384;DHT22;14851;51.166;4.760;2023-03-13T17:29:44;15.70;99.90
27384;DHT22;14851;51.166;4.760;2023-03-13T17:32:13;15.80;99.90
27384;DHT22;14851;51.166;4.760;2023-03-13T17:34:39;15.80;99.90
27384;DHT22;14851;51.166;4.760;2023-03-13T17:37:19;15.80;99.90
27384;DHT22;14851;51.166;4.760;2023-03-13T17:39:47;15.70;99.90
27384;DHT22;14851;51.166;4.760;2023-03-13T17:42:16;15.70;99.90
27384;DHT22;14851;51.166;4.760;2023-03-13T17:44:42;15.70;99.90
27384;DHT22;14851;51.166;4.760;2023-03-13T17:47:20;15.60;99.90
27384;DHT22;14851;51.166;4.760;2023-03-13T17:49:48;15.60;99.90
27384;DHT22;14851;51.166;4.760;2023-03-13T17:52:16;15.60;99.90
27384;DHT22;14851;51.166;4.760;2023-03-13T17:54:43;15.60;99.90
27384;DHT22;14851;51.166;4.760;2023-03-13T17:57:20;15.60;99.90
27384;DHT22;14851;51.166;4.760;2023-03-13T17:59:48;15.50;99.90
27384;DHT22;14851;51.166;4.760;2023-03-13T18:02:15;15.50;99.90